createdAt,value
2022-11-18T00:00:56.689Z,3.20
2022-11-18T00:03:23.975Z,3.40
2022-11-18T00:05:57.946Z,4.10
2022-11-18T00:08:26.080Z,3.72
2022-11-18T00:10:54.247Z,4.10
2022-11-18T00:13:39.586Z,3.92
2022-11-18T00:16:12.069Z,3.70
2022-11-18T00:18:39.393Z,3.47
2022-11-18T00:21:09.366Z,3.25
2022-11-18T00:23:36.770Z,3.50
2022-11-18T00:26:13.998Z,3.90
2022-11-18T00:28:41.911Z,3.55
2022-11-18T00:31:11.749Z,3.53
2022-11-18T00:33:39.557Z,3.40
2022-11-18T00:36:09.413Z,3.50
2022-11-18T00:38:36.583Z,3.38
2022-11-18T00:41:08.955Z,3.40
2022-11-18T00:43:36.672Z,2.97
2022-11-18T00:46:05.464Z,3.15
2022-11-18T00:48:32.615Z,2.88
2022-11-18T00:51:10.834Z,3.45
2022-11-18T00:53:37.993Z,3.22
2022-11-18T00:56:05.318Z,3.20
2022-11-18T00:58:32.192Z,3.50
2022-11-18T01:00:59.514Z,2.78
2022-11-18T01:03:28.696Z,2.92
2022-11-18T01:05:55.648Z,2.80
2022-11-18T01:08:23.066Z,3.25
2022-11-18T01:10:50.929Z,2.85
2022-11-18T01:13:19.807Z,2.63
2022-11-18T01:15:52.677Z,2.33
2022-11-18T01:18:25.497Z,2.58
2022-11-18T01:20:52.849Z,2.80
2022-11-18T01:23:20.942Z,2.70
2022-11-18T01:25:49.847Z,2.78
2022-11-18T01:28:23.269Z,3.47
2022-11-18T01:30:51.334Z,2.60
2022-11-18T01:33:18.535Z,3.10
2022-11-18T01:35:45.574Z,3.40
2022-11-18T01:38:14.232Z,2.90
2022-11-18T01:40:41.959Z,2.70
2022-11-18T01:43:15.912Z,2.88
2022-11-18T01:45:45.405Z,2.60
2022-11-18T01:48:26.970Z,2.88
2022-11-18T01:51:06.328Z,2.60
2022-11-18T01:53:38.610Z,1.98
2022-11-18T01:56:13.369Z,2.25
2022-11-18T01:59:09.281Z,1.98
2022-11-18T02:01:36.461Z,2.30
2022-11-18T02:04:04.123Z,2.20
2022-11-18T02:06:31.122Z,1.90
2022-11-18T02:08:58.184Z,2.08
2022-11-18T02:11:43.487Z,1.77
2022-11-18T02:14:12.283Z,1.77
2022-11-18T02:16:42.091Z,1.75
2022-11-18T02:19:37.712Z,2.17
2022-11-18T02:22:19.650Z,1.77
2022-11-18T02:25:07.798Z,1.75
2022-11-18T02:28:12.057Z,1.90
2022-11-18T02:31:11.138Z,2.00
2022-11-18T02:33:49.103Z,1.65
2022-11-18T02:36:29.691Z,2.50
2022-11-18T02:39:03.470Z,3.25
2022-11-18T02:41:33.986Z,2.00
2022-11-18T02:44:24.844Z,1.80
2022-11-18T02:46:57.086Z,2.45
2022-11-18T02:49:32.361Z,1.52
2022-11-18T02:52:00.819Z,1.77
2022-11-18T02:54:29.392Z,1.80
2022-11-18T02:56:58.081Z,1.88
2022-11-18T02:59:28.443Z,1.70
2022-11-18T03:01:55.369Z,1.30
2022-11-18T03:04:24.407Z,1.60
2022-11-18T03:07:02.884Z,1.50
2022-11-18T03:09:39.336Z,1.10
2022-11-18T03:12:24.673Z,1.63
2022-11-18T03:15:16.581Z,1.58
2022-11-18T03:18:07.488Z,1.65
2022-11-18T03:20:41.979Z,1.58
2022-11-18T03:23:22.167Z,1.50
2022-11-18T03:25:54.970Z,1.70
2022-11-18T03:28:39.477Z,1.42
2022-11-18T03:31:38.783Z,1.40
2022-11-18T03:34:12.709Z,1.67
2022-11-18T03:36:48.849Z,1.48
2022-11-18T03:39:21.271Z,1.98
2022-11-18T03:42:02.713Z,1.92
2022-11-18T03:44:32.723Z,1.70
2022-11-18T03:47:05.074Z,1.80
2022-11-18T03:49:46.587Z,1.70
2022-11-18T03:52:19.011Z,1.65
2022-11-18T03:54:50.364Z,1.60
2022-11-18T03:57:27.094Z,1.67
2022-11-18T04:02:24.970Z,1.70
2022-11-18T04:04:54.246Z,1.85
2022-11-18T04:07:36.078Z,1.92
2022-11-18T04:10:23.293Z,2.20
2022-11-18T04:15:21.002Z,2.13
2022-11-18T04:17:47.966Z,2.03
2022-11-18T04:20:21.293Z,1.83
2022-11-18T04:22:48.614Z,2.35
2022-11-18T04:25:16.020Z,2.30
2022-11-18T04:27:42.984Z,2.80
2022-11-18T04:30:10.618Z,3.08
2022-11-18T04:32:37.614Z,3.10
2022-11-18T04:35:04.663Z,3.05
2022-11-18T04:37:31.600Z,3.30
2022-11-18T04:39:58.625Z,4.57
2022-11-18T04:42:25.699Z,4.80
2022-11-18T04:44:52.590Z,5.22
2022-11-18T04:47:19.546Z,3.78
2022-11-18T04:49:46.560Z,5.25
2022-11-18T04:52:14.024Z,3.13
2022-11-18T04:54:40.960Z,2.25
2022-11-18T04:57:08.113Z,2.40
2022-11-18T04:59:34.997Z,2.08
2022-11-18T05:02:02.203Z,1.80
2022-11-18T05:04:32.077Z,2.08
2022-11-18T05:07:00.730Z,2.13
2022-11-18T05:09:31.785Z,2.38
2022-11-18T05:12:18.274Z,2.38
2022-11-18T05:14:49.545Z,2.08
2022-11-18T05:17:16.925Z,2.15
2022-11-18T05:19:43.792Z,2.53
2022-11-18T05:22:10.659Z,5.57
2022-11-18T05:24:37.564Z,4.88
2022-11-18T05:27:04.593Z,5.65
2022-11-18T05:29:31.740Z,4.60
2022-11-18T05:31:58.603Z,3.92
2022-11-18T05:34:25.634Z,4.40
2022-11-18T05:36:52.554Z,3.20
2022-11-18T05:39:19.822Z,3.08
2022-11-18T05:42:05.555Z,2.10
2022-11-18T05:44:32.497Z,1.48
2022-11-18T05:47:00.372Z,1.42
2022-11-18T05:49:27.496Z,1.38
2022-11-18T05:51:54.318Z,1.42
2022-11-18T05:54:22.115Z,1.85
2022-11-18T05:56:49.354Z,1.50
2022-11-18T05:59:16.942Z,1.67
2022-11-18T06:01:58.419Z,2.03
2022-11-18T06:04:45.540Z,2.17
2022-11-18T06:09:50.979Z,1.65
2022-11-18T06:12:21.740Z,1.60
2022-11-18T06:15:02.657Z,1.75
2022-11-18T06:17:40.407Z,1.73
2022-11-18T06:20:08.097Z,1.58
2022-11-18T06:22:35.789Z,1.35
2022-11-18T06:25:03.357Z,1.55
2022-11-18T06:27:31.158Z,1.95
2022-11-18T06:29:58.107Z,1.42
2022-11-18T06:32:24.990Z,1.83
2022-11-18T06:34:51.933Z,1.73
2022-11-18T06:37:23.122Z,1.70
2022-11-18T06:39:50.060Z,1.83
2022-11-18T06:42:36.904Z,1.70
2022-11-18T06:45:05.131Z,1.50
2022-11-18T06:47:32.179Z,1.42
2022-11-18T06:49:59.165Z,1.77
2022-11-18T06:52:26.114Z,1.67
2022-11-18T06:54:52.996Z,1.75
2022-11-18T06:57:19.934Z,2.17
2022-11-18T06:59:46.932Z,1.88
2022-11-18T07:02:13.895Z,2.13
2022-11-18T07:04:41.492Z,2.10
2022-11-18T07:07:08.611Z,2.33
2022-11-18T07:09:37.029Z,1.90
2022-11-18T07:12:04.674Z,1.80
2022-11-18T07:14:31.929Z,1.90
2022-11-18T07:16:58.857Z,1.75
2022-11-18T07:19:25.747Z,2.25
2022-11-18T07:21:52.983Z,2.35
2022-11-18T07:24:19.841Z,2.55
2022-11-18T07:26:46.965Z,2.35
2022-11-18T07:29:13.836Z,2.30
2022-11-18T07:31:41.039Z,2.47
2022-11-18T07:34:08.198Z,3.42
2022-11-18T07:36:36.232Z,3.03
2022-11-18T07:39:06.276Z,3.70
2022-11-18T07:41:34.390Z,4.05
2022-11-18T07:44:02.940Z,4.10
2022-11-18T07:46:35.732Z,4.28
2022-11-18T07:49:05.822Z,4.22
2022-11-18T07:51:35.190Z,4.80
2022-11-18T07:54:05.831Z,4.95
2022-11-18T07:56:32.774Z,3.70
2022-11-18T07:58:59.633Z,5.35
2022-11-18T08:01:31.263Z,5.82
2022-11-18T08:04:04.757Z,5.97
2022-11-18T08:06:34.222Z,5.78
2022-11-18T08:09:01.622Z,6.28
2022-11-18T08:11:28.702Z,5.03
2022-11-18T08:13:55.653Z,5.75
2022-11-18T08:16:24.706Z,5.15
2022-11-18T08:18:52.653Z,4.93
2022-11-18T08:21:21.491Z,5.35
2022-11-18T08:23:53.351Z,4.47
2022-11-18T08:26:20.812Z,5.70
2022-11-18T08:28:48.612Z,5.18
2022-11-18T08:31:21.126Z,5.78
2022-11-18T08:33:48.323Z,5.75
2022-11-18T08:36:21.331Z,6.55
2022-11-18T08:38:48.343Z,5.22
2022-11-18T08:41:19.866Z,4.57
2022-11-18T08:43:46.794Z,4.45
2022-11-18T08:46:13.812Z,4.45
2022-11-18T08:48:40.743Z,5.35
2022-11-18T08:51:11.655Z,4.03
2022-11-18T08:53:38.925Z,4.18
2022-11-18T08:56:06.435Z,4.63
2022-11-18T08:58:33.506Z,4.22
2022-11-18T09:01:06.637Z,4.43
2022-11-18T09:03:33.823Z,5.00
2022-11-18T09:06:10.701Z,4.70
2022-11-18T09:08:38.493Z,4.82
2022-11-18T09:11:13.010Z,5.38
2022-11-18T09:16:29.915Z,4.63
2022-11-18T09:19:02.092Z,5.25
2022-11-18T09:21:41.125Z,4.88
2022-11-18T09:24:08.567Z,5.80
2022-11-18T09:26:35.491Z,4.95
2022-11-18T09:29:02.608Z,5.22
2022-11-18T09:31:29.606Z,4.65
2022-11-18T09:33:58.805Z,4.72
2022-11-18T09:36:26.576Z,5.35
2022-11-18T09:38:53.769Z,4.43
2022-11-18T09:41:46.659Z,4.32
2022-11-18T09:44:22.265Z,4.32
2022-11-18T10:17:56.747Z,3.97
2022-11-18T10:20:47.189Z,4.28
2022-11-18T10:23:24.314Z,4.63
2022-11-18T10:25:53.246Z,4.30
2022-11-18T10:28:31.446Z,4.65
2022-11-18T10:31:07.656Z,5.28
2022-11-18T10:33:35.069Z,5.28
2022-11-18T10:36:17.175Z,4.70
2022-11-18T10:38:49.765Z,5.90
2022-11-18T10:41:20.775Z,5.35
2022-11-18T10:43:51.633Z,5.15
2022-11-18T10:46:28.939Z,4.75
2022-11-18T10:49:10.899Z,5.38
2022-11-18T10:51:46.565Z,5.00
2022-11-18T10:54:13.439Z,5.65
2022-11-18T10:56:48.845Z,4.80
2022-11-18T10:59:36.368Z,4.57
2022-11-18T11:02:15.834Z,6.10
2022-11-18T11:04:44.015Z,4.45
2022-11-18T11:07:35.188Z,4.93
2022-11-18T11:10:04.969Z,4.72
2022-11-18T11:12:37.696Z,5.20
2022-11-18T11:15:21.898Z,5.82
2022-11-18T11:18:16.799Z,6.55
2022-11-18T11:20:44.743Z,5.20
2022-11-18T11:23:16.692Z,5.13
2022-11-18T11:31:58.957Z,6.00
2022-11-18T11:34:31.772Z,5.80
2022-11-18T11:37:14.603Z,5.18
2022-11-18T11:40:12.302Z,4.90
2022-11-18T11:42:42.091Z,5.85
2022-11-18T11:45:36.421Z,5.90
2022-11-18T11:48:06.345Z,5.18
2022-11-18T11:51:01.580Z,5.55
2022-11-18T11:53:44.697Z,5.90
2022-11-18T11:56:32.484Z,5.43
2022-11-18T11:59:23.828Z,6.18
2022-11-18T12:01:50.667Z,5.85
2022-11-18T12:04:36.237Z,5.97
2022-11-18T12:07:05.425Z,5.47
2022-11-18T12:09:39.656Z,6.55
2022-11-18T12:12:36.933Z,6.80
2022-11-18T12:15:41.230Z,5.72
2022-11-18T12:18:30.546Z,6.22
2022-11-18T12:20:57.564Z,5.88
2022-11-18T12:23:29.417Z,6.13
2022-11-18T12:26:03.378Z,6.55
2022-11-18T12:28:41.520Z,7.05
2022-11-18T12:31:23.572Z,6.90
2022-11-18T12:34:01.299Z,7.97
2022-11-18T12:36:36.985Z,8.20
2022-11-18T12:39:25.817Z,8.40
2022-11-18T12:42:15.729Z,7.13
2022-11-18T12:44:44.526Z,8.07
2022-11-18T12:47:13.373Z,7.90
2022-11-18T12:49:46.449Z,7.30
2022-11-18T12:52:31.778Z,7.63
2022-11-18T12:55:31.816Z,6.40
2022-11-18T12:57:58.719Z,6.13
2022-11-18T13:00:25.711Z,6.25
2022-11-18T13:02:58.192Z,6.97
2022-11-18T13:05:32.384Z,7.13
2022-11-18T13:08:14.529Z,7.43
2022-11-18T13:10:44.110Z,7.18
2022-11-18T13:13:27.644Z,7.53
2022-11-18T13:16:16.146Z,8.35
2022-11-18T13:18:51.272Z,7.63
2022-11-18T13:21:46.118Z,8.18
2022-11-18T13:24:14.739Z,8.38
2022-11-18T13:26:44.823Z,7.40
2022-11-18T13:30:01.198Z,7.78
2022-11-18T13:32:29.476Z,8.35
2022-11-18T13:34:59.586Z,6.60
2022-11-18T13:37:29.457Z,7.68
2022-11-18T13:39:56.770Z,8.45
2022-11-18T13:42:28.681Z,8.20
2022-11-18T13:45:02.898Z,8.63
2022-11-18T13:47:29.862Z,8.40
2022-11-18T13:49:56.655Z,8.85
2022-11-18T13:52:44.407Z,8.40
2022-11-18T13:55:52.064Z,8.52
2022-11-18T13:58:18.908Z,9.27
2022-11-18T14:00:57.790Z,8.93
2022-11-18T14:03:46.398Z,9.70
2022-11-18T14:06:24.801Z,10.02
2022-11-18T14:08:53.127Z,9.90
2022-11-18T14:11:38.161Z,10.38
2022-11-18T14:14:05.315Z,10.73
2022-11-18T14:16:40.450Z,10.63
2022-11-18T14:19:26.563Z,10.68
2022-11-18T14:22:23.318Z,11.15
2022-11-18T14:25:15.645Z,10.52
2022-11-18T14:27:49.393Z,10.82
2022-11-18T14:30:41.701Z,11.57
2022-11-18T14:33:08.539Z,11.13
2022-11-18T14:35:35.556Z,11.07
2022-11-18T14:41:00.117Z,11.60
2022-11-18T14:43:27.604Z,11.47
2022-11-18T14:45:58.221Z,13.65
2022-11-18T14:48:32.126Z,12.15
2022-11-18T14:51:00.362Z,13.23
2022-11-18T14:53:27.597Z,13.73
2022-11-18T14:55:58.726Z,14.02
2022-11-18T14:58:25.823Z,15.63
2022-11-18T15:00:53.274Z,14.63
2022-11-18T15:03:20.319Z,13.82
2022-11-18T15:05:47.298Z,15.25
2022-11-18T15:08:14.285Z,15.10
2022-11-18T15:10:41.211Z,14.90
2022-11-18T15:13:08.150Z,13.55
2022-11-18T15:15:35.269Z,14.55
2022-11-18T15:18:02.221Z,13.40
2022-11-18T15:20:29.166Z,13.38
2022-11-18T15:22:56.268Z,13.68
2022-11-18T15:25:23.174Z,12.95
2022-11-18T15:27:50.139Z,13.70
2022-11-18T15:30:17.250Z,13.52
2022-11-18T15:32:44.250Z,14.95
2022-11-18T15:35:13.395Z,14.27
2022-11-18T15:37:41.295Z,15.05
2022-11-18T15:40:08.982Z,15.45
2022-11-18T15:42:42.476Z,14.45
2022-11-18T15:45:15.965Z,14.45
2022-11-18T15:47:42.796Z,14.95
2022-11-18T15:50:10.714Z,13.18
2022-11-18T15:52:37.727Z,13.95
2022-11-18T15:55:08.049Z,13.18
2022-11-18T15:57:35.295Z,11.98
2022-11-18T16:00:02.463Z,13.65
2022-11-18T16:02:39.144Z,13.27
2022-11-18T16:05:06.591Z,12.82
2022-11-18T16:07:33.514Z,12.93
2022-11-18T16:10:19.046Z,13.48
2022-11-18T16:12:48.981Z,11.60
2022-11-18T16:15:35.373Z,13.35
2022-11-18T16:18:03.768Z,13.27
2022-11-18T16:20:30.808Z,12.07
2022-11-18T16:22:57.904Z,12.68
2022-11-18T16:25:25.926Z,14.27
2022-11-18T16:27:53.106Z,13.48
2022-11-18T16:30:38.828Z,14.23
2022-11-18T16:33:05.771Z,12.68
2022-11-18T16:35:32.964Z,13.30
2022-11-18T16:37:59.942Z,13.90
2022-11-18T16:40:28.610Z,12.90
2022-11-18T16:42:55.712Z,12.43
2022-11-18T16:45:22.652Z,12.02
2022-11-18T16:47:49.600Z,11.20
2022-11-18T16:50:16.778Z,11.48
2022-11-18T16:52:43.626Z,11.80
2022-11-18T16:55:10.548Z,11.32
2022-11-18T16:57:37.542Z,10.95
2022-11-18T17:00:05.435Z,10.77
2022-11-18T17:02:32.549Z,11.00
2022-11-18T17:04:59.518Z,11.05
2022-11-18T17:07:26.595Z,10.18
2022-11-18T17:09:53.540Z,10.25
2022-11-18T17:12:20.490Z,9.32
2022-11-18T17:14:47.332Z,9.48
2022-11-18T17:17:14.330Z,9.40
2022-11-18T17:19:41.440Z,9.25
2022-11-18T17:22:08.305Z,9.25
2022-11-18T17:24:35.236Z,9.63
2022-11-18T17:27:02.257Z,8.93
2022-11-18T17:29:29.152Z,8.55
2022-11-18T17:31:56.373Z,8.32
2022-11-18T17:34:23.322Z,7.88
2022-11-18T17:36:50.555Z,7.93
2022-11-18T17:39:18.913Z,8.57
2022-11-18T17:42:04.729Z,8.85
2022-11-18T17:44:31.661Z,8.38
2022-11-18T17:46:58.627Z,7.53
2022-11-18T17:49:25.660Z,8.00
2022-11-18T17:51:52.598Z,7.63
2022-11-18T17:54:20.866Z,7.38
2022-11-18T17:56:48.643Z,7.63
2022-11-18T17:59:17.499Z,7.85
2022-11-18T18:01:47.948Z,7.85
2022-11-18T18:04:20.377Z,8.02
2022-11-18T18:06:52.933Z,7.85
2022-11-18T18:09:26.886Z,7.50
2022-11-18T18:11:58.217Z,7.47
2022-11-18T18:14:25.136Z,8.75
2022-11-18T18:16:52.080Z,7.47
2022-11-18T18:19:21.256Z,7.50
2022-11-18T18:21:48.390Z,7.72
2022-11-18T18:24:17.562Z,7.95
2022-11-18T18:26:44.942Z,7.00
2022-11-18T18:29:12.614Z,6.53
2022-11-18T18:31:39.828Z,6.53
2022-11-18T18:34:06.798Z,7.47
2022-11-18T18:36:34.401Z,7.22
2022-11-18T18:39:02.492Z,7.10
2022-11-18T18:41:30.489Z,6.72
2022-11-18T18:43:57.560Z,7.15
2022-11-18T18:46:29.900Z,7.80
2022-11-18T18:49:10.949Z,7.85
2022-11-18T18:51:43.221Z,7.00
2022-11-18T18:54:11.919Z,6.93
2022-11-18T18:56:38.945Z,5.88
2022-11-18T18:59:07.278Z,5.85
2022-11-18T19:01:35.003Z,6.63
2022-11-18T19:04:04.864Z,6.88
2022-11-18T19:09:26.680Z,6.15
2022-11-18T19:12:12.696Z,6.20
2022-11-18T19:14:39.839Z,6.60
2022-11-18T19:17:11.392Z,6.55
2022-11-18T19:19:59.523Z,5.45
2022-11-18T19:22:30.888Z,5.70
2022-11-18T19:24:58.563Z,6.00
2022-11-18T19:27:26.280Z,5.18
2022-11-18T19:29:53.197Z,5.45
2022-11-18T19:32:20.233Z,5.07
2022-11-18T19:34:47.134Z,5.53
2022-11-18T19:37:14.047Z,4.97
2022-11-18T19:39:40.941Z,7.05
2022-11-18T19:42:08.051Z,5.07
2022-11-18T19:44:34.918Z,5.82
2022-11-18T19:47:01.852Z,5.53
2022-11-18T19:49:28.804Z,6.32
2022-11-18T19:51:55.736Z,6.00
2022-11-18T19:54:23.660Z,5.82
2022-11-18T19:56:50.708Z,5.60
2022-11-18T19:59:17.932Z,5.57
2022-11-18T20:01:45.236Z,5.47
2022-11-18T20:04:12.287Z,5.72
2022-11-18T20:06:40.257Z,4.70
2022-11-18T20:09:09.047Z,5.15
2022-11-18T20:11:36.599Z,5.10
2022-11-18T20:14:03.552Z,4.72
2022-11-18T20:16:30.795Z,4.88
2022-11-18T20:19:02.912Z,5.30
2022-11-18T20:21:34.451Z,4.53
2022-11-18T20:24:03.483Z,5.00
2022-11-18T20:26:40.285Z,5.60
2022-11-18T20:29:08.264Z,5.25
2022-11-18T20:31:37.385Z,5.20
2022-11-18T20:34:05.268Z,4.50
2022-11-18T20:36:35.683Z,3.90
2022-11-18T20:39:14.647Z,4.55
2022-11-18T20:41:42.227Z,5.22
2022-11-18T20:44:09.187Z,5.38
2022-11-18T20:46:36.064Z,4.35
2022-11-18T20:49:03.399Z,4.10
2022-11-18T20:51:30.339Z,4.18
2022-11-18T20:53:58.606Z,4.97
2022-11-18T20:56:27.495Z,4.60
2022-11-18T20:58:57.017Z,4.28
2022-11-18T21:01:27.201Z,3.90
2022-11-18T21:03:59.385Z,3.58
2022-11-18T21:06:29.386Z,4.25
2022-11-18T21:09:00.233Z,4.25
2022-11-18T21:11:27.945Z,3.15
2022-11-18T21:14:16.021Z,4.05
2022-11-18T21:16:46.482Z,3.55
2022-11-18T21:19:13.920Z,4.53
2022-11-18T21:21:48.866Z,4.00
2022-11-18T21:24:19.779Z,3.97
2022-11-18T21:26:48.876Z,3.65
2022-11-18T21:29:17.680Z,4.35
2022-11-18T21:31:47.066Z,4.85
2022-11-18T21:34:15.534Z,3.75
2022-11-18T21:36:45.982Z,3.65
2022-11-18T21:39:15.560Z,3.78
2022-11-18T21:41:43.473Z,3.60
2022-11-18T21:44:12.745Z,4.00
2022-11-18T21:46:41.457Z,4.18
2022-11-18T21:49:08.625Z,3.65
2022-11-18T21:51:35.973Z,3.92
2022-11-18T21:54:03.141Z,4.07
2022-11-18T21:56:31.482Z,3.65
2022-11-18T21:59:01.312Z,3.35
2022-11-18T22:01:33.542Z,5.25
2022-11-18T22:04:03.128Z,5.65
2022-11-18T22:06:33.902Z,6.18
2022-11-18T22:09:02.574Z,5.68
2022-11-18T22:11:29.440Z,7.50
2022-11-18T22:13:56.322Z,7.38
2022-11-18T22:16:24.803Z,8.90
2022-11-18T22:18:59.188Z,7.18
2022-11-18T22:21:29.400Z,16.35
2022-11-18T22:24:00.917Z,8.77
2022-11-18T22:26:28.794Z,4.93
2022-11-18T22:28:57.383Z,5.47
2022-11-18T22:31:26.650Z,5.50
2022-11-18T22:33:55.594Z,4.82
2022-11-18T22:36:25.586Z,4.32
2022-11-18T22:38:53.944Z,11.15
2022-11-18T22:41:42.423Z,7.00
2022-11-18T22:44:10.549Z,17.65
2022-11-18T22:46:38.895Z,7.40
2022-11-18T22:49:07.538Z,6.82
2022-11-18T22:51:35.983Z,5.60
2022-11-18T22:54:31.235Z,5.65
2022-11-18T22:56:50.853Z,5.72
2022-11-18T22:59:18.050Z,6.68
2022-11-18T23:01:45.188Z,7.15
2022-11-18T23:04:12.033Z,7.45
2022-11-18T23:06:39.098Z,7.13
2022-11-18T23:09:06.111Z,8.27
2022-11-18T23:11:51.445Z,6.55
2022-11-18T23:14:18.334Z,7.32
2022-11-18T23:16:45.291Z,9.00
2022-11-18T23:19:14.644Z,6.90
2022-11-18T23:21:42.916Z,7.20
2022-11-18T23:24:14.599Z,7.05
2022-11-18T23:26:42.205Z,7.10
2022-11-18T23:29:10.426Z,7.95
2022-11-18T23:31:40.874Z,8.05
2022-11-18T23:34:07.774Z,7.10
2022-11-18T23:36:34.622Z,6.90
2022-11-18T23:39:01.471Z,7.43
2022-11-18T23:41:28.363Z,6.75
2022-11-18T23:43:55.224Z,6.00
2022-11-18T23:46:22.065Z,5.10
2022-11-18T23:48:49.219Z,6.10
2022-11-18T23:51:20.945Z,5.53
2022-11-18T23:53:52.655Z,3.63
2022-11-18T23:56:21.044Z,3.33
2022-11-18T23:58:50.234Z,2.80
